Aérodrome :
LOGIN :

S'inscrire | Disclaimer

   EN    FR    IT 

 










Légende :    VFR   VFR Marginal   IFR   IFR Intensif   IFR Très Intensif
Visi : 
Plafond : 
>= 8 km
>= 3000ft
5 à 8 km
1000 à 3000 ft
1500m à 5 km
500 à 1000 ft
800 à 1500m
200 à 500 ft
< 800m
< 200 ft
Symboles :   Orages  Brouillard  Fortes neiges  Fortes précipitations  Vent > 20 kt
SIGMETs :   Divers  Orages  Givrage  Turbulence  Onde Orograph.  Cendres Volcan.






- Altitude de l'aérodrome : 364 ft
- Code IATA : FRA


EDDF - Frankfurt Int.

DERNIER METAR :
  • 241520Z 25010KT 9999 FEW023 BKN040 03/M01 Q1001 R25C/29//95 R25L/29//95 R18/29//95 NOSIG

METARs EXPIRÉS :
  • 241450Z 26011KT 9999 -RA FEW010 SCT025 BKN038 03/M01 Q1001 R25C/29//95 R25L/29//95 R18/29//95 NOSIG
  • 241420Z 25010KT 9999 -RA FEW010 BKN025 03/M01 Q1001 R25C/29//95 R25L/29//95 R18/29//95 NOSIG
  • 241350Z 25011KT 9999 FEW018 SCT026 BKN040 04/M00 Q1000 R25C/29//95 R25L/29//95 R18/29//95 NOSIG
  • 241320Z 26012KT 230V290 9999 FEW013 SCT027 04/M00 Q1000 R25C/29//95 R25L/29//95 R18/29//95 NOSIG
  • 241250Z 25013KT 9999 -RA FEW013 SCT023 03/01 Q1000 R25C/29//95 R25L/29//95 R18/29//95 NOSIG

TAF TAF EDDF
Valide du 24 à 12h jusqu'au 25 à 18h UTC


241100Z 2412/2518 23012KT 9999 BKN020
PROB30
TEMPO 2412/2414 25015G25KT
BECMG 2416/2418 22005KT FEW030
BECMG 2423/2502 07003KT BKN020
TEMPO 2502/2512 3000 -SN BKN010



MET'MAP, la Météo Aéronautique d'un coup d'oeil ! - Copyright ORBIFLY Décembre 2007 - Disclaimer

ORBIFLY MET'MAP TEAM :

Programmation & Développement : Alexandra Zaïnal
Sur une idée originale de : Baudouin d'Aumeries
Assistance à la programmation : Marc-Olivier Méhu
Soutien technique & logistique : Manuel Goepfert

Contact : metmap@orbifly.com




SOURCES & CREDITS :

   NOAA